Time;durP1;ratioP1;P1;durP2;ratioP2;P2;SDS_P1;SDS_P2;PMS_P1;PMS_P2;Temp;Humidity;BMP_temperature;BMP_pressure;BME280_temperature;BME280_humidity;BME280_pressure;Samples;Min_cycle;Max_cycle;Signal;HPM_P1;HPM_P2
2023/03/31 00:01:14;;;;;;;;;;;;;;;10.31;77.36;99849.20;107259;1256;125913;-80
2023/03/31 00:03:42;;;;;;;;;;;;;;;10.30;77.36;99846.04;107378;1257;62995;-80
2023/03/31 00:06:10;;;;;;;;;;;;;;;10.30;77.32;99844.27;107667;1255;125643;-80
2023/03/31 00:08:39;;;;;;;;;;;;;;;10.29;77.33;99836.16;107862;1257;75981;-80
2023/03/31 00:11:06;;;;;;;;;;;;;;;10.29;77.29;99843.17;107833;1256;64779;-78
2023/03/31 00:13:34;;;;;;;;;;;;;;;10.28;77.35;99842.46;107720;1259;125654;-81
2023/03/31 00:16:08;;;;;;;;;;;;;;;10.28;77.29;99846.66;107724;1258;60781;-81
2023/03/31 00:18:39;;;;;;;;;;;;;;;10.27;77.26;99849.66;107347;1256;126053;-81
2023/03/31 00:21:23;;;;;;;;;;;;;;;10.27;77.36;99847.02;107692;1256;76517;-79
2023/03/31 00:23:52;;;;;;;;;;;;;;;10.27;77.25;99843.34;107490;1255;125248;-79
2023/03/31 00:26:19;;;;;;;;;;;;;;;10.26;77.24;99849.81;107648;1256;72689;-80
2023/03/31 00:28:46;;;;;;;;;;;;;;;10.25;77.16;99854.54;107522;1256;62130;-81
2023/03/31 00:31:13;;;;;;;;;;;;;;;10.26;77.16;99857.88;107819;1255;124934;-79
2023/03/31 00:33:40;;;;;;;;;;;;;;;10.26;77.22;99859.27;107891;1256;76216;-78
2023/03/31 00:36:08;;;;;;;;;;;;;;;10.25;77.15;99862.95;107522;1254;125251;-78
2023/03/31 00:38:35;;;;;;;;;;;;;;;10.25;77.13;99861.73;107650;1257;72810;-78
2023/03/31 00:41:02;;;;;;;;;;;;;;;10.25;77.14;99863.84;107664;1259;61954;-78
2023/03/31 00:43:31;;;;;;;;;;;;;;;10.24;77.06;99863.12;107387;1255;125308;-78
2023/03/31 00:46:14;;;;;;;;;;;;;;;10.24;77.05;99866.63;107710;1256;74305;-78
2023/03/31 00:48:43;;;;;;;;;;;;;;;10.23;77.16;99867.65;107467;1256;125740;-78
2023/03/31 00:51:10;;;;;;;;;;;;;;;10.22;77.09;99863.96;107566;1254;72074;-78
2023/03/31 00:53:36;;;;;;;;;;;;;;;10.22;77.08;99867.30;108724;1256;125528;-78
2023/03/31 00:56:05;;;;;;;;;;;;;;;10.21;77.07;99867.45;108922;1254;60175;-79
2023/03/31 00:58:32;;;;;;;;;;;;;;;10.19;76.98;99867.44;108946;1256;73890;-82
2023/03/31 01:01:01;;;;;;;;;;;;;;;10.18;77.00;99869.52;109014;1253;125057;-79
2023/03/31 01:03:29;;;;;;;;;;;;;;;10.16;77.07;99870.03;109000;1253;71085;-79
2023/03/31 01:06:03;;;;;;;;;;;;;;;10.15;77.02;99871.77;109055;1253;125801;-79
2023/03/31 01:08:31;;;;;;;;;;;;;;;10.14;77.01;99871.05;108904;1260;60266;-83
2023/03/31 01:11:02;;;;;;;;;;;;;;;10.12;77.02;99865.42;109126;1253;75284;-83
2023/03/31 01:13:29;;;;;;;;;;;;;;;10.11;77.04;99861.02;108891;1253;125468;-82
2023/03/31 01:15:56;;;;;;;;;;;;;;;10.08;76.95;99857.84;107992;1256;72672;-82
2023/03/31 01:18:24;;;;;;;;;;;;;;;10.06;76.95;99870.42;107607;1255;125845;-82
2023/03/31 01:20:54;;;;;;;;;;;;;;;10.06;77.08;99876.21;107602;1254;61323;-81
2023/03/31 01:23:29;;;;;;;;;;;;;;;10.08;77.14;99880.10;108128;1253;74247;-81
2023/03/31 01:26:00;;;;;;;;;;;;;;;10.09;77.29;99878.01;107904;1257;67681;-81
2023/03/31 01:28:36;;;;;;;;;;;;;;;10.12;77.25;99875.42;108056;1255;73155;-81
2023/03/31 01:31:03;;;;;;;;;;;;;;;10.16;77.31;99876.86;107763;1257;125263;-81
2023/03/31 01:33:35;;;;;;;;;;;;;;;10.18;77.23;99871.11;107900;1253;61884;-78
2023/03/31 01:36:05;;;;;;;;;;;;;;;10.16;77.18;99869.86;107451;1253;125327;-78
2023/03/31 01:38:35;;;;;;;;;;;;;;;10.13;77.03;99867.19;107751;1253;67060;-78
2023/03/31 01:41:28;;;;;;;;;;;;;;;10.11;77.18;99868.90;107500;1254;72661;-78
2023/03/31 01:44:00;;;;;;;;;;;;;;;10.11;77.20;99870.48;107751;1253;60908;-78
2023/03/31 01:46:27;;;;;;;;;;;;;;;10.08;77.22;99869.93;107651;1256;61654;-78
2023/03/31 01:49:03;;;;;;;;;;;;;;;10.07;77.29;99873.42;107895;1255;125107;-81
2023/03/31 01:51:39;;;;;;;;;;;;;;;10.09;77.41;99867.14;108054;1253;66867;-80
2023/03/31 01:54:12;;;;;;;;;;;;;;;10.10;77.33;99869.09;107731;1257;125491;-80
2023/03/31 01:56:39;;;;;;;;;;;;;;;10.09;77.30;99869.42;107904;1254;60236;-80
2023/03/31 01:59:09;;;;;;;;;;;;;;;10.10;77.42;99866.44;107973;1255;61564;-80
2023/03/31 02:01:46;;;;;;;;;;;;;;;10.11;77.43;99863.31;107600;1256;124919;-80
2023/03/31 02:04:18;;;;;;;;;;;;;;;10.10;77.38;99862.95;107907;1257;67311;-80
2023/03/31 02:06:46;;;;;;;;;;;;;;;10.12;77.50;99861.91;107645;1255;125530;-81
2023/03/31 02:09:14;;;;;;;;;;;;;;;10.13;77.57;99858.25;107817;1256;60431;-80
2023/03/31 02:11:41;;;;;;;;;;;;;;;10.13;77.63;99860.53;107864;1260;125572;-80
2023/03/31 02:14:09;;;;;;;;;;;;;;;10.14;77.61;99857.04;107534;1256;73952;-77
2023/03/31 02:16:36;;;;;;;;;;;;;;;10.16;77.66;99853.38;107593;1256;66882;-77
2023/03/31 02:19:04;;;;;;;;;;;;;;;10.16;77.59;99848.98;107647;1256;125009;-79
2023/03/31 02:21:31;;;;;;;;;;;;;;;10.13;77.61;99843.17;107994;1256;61145;-80
2023/03/31 02:23:59;;;;;;;;;;;;;;;10.09;77.51;99844.87;107521;1256;125490;-80
2023/03/31 02:26:27;;;;;;;;;;;;;;;10.02;77.50;99844.27;107410;1260;75551;-80
2023/03/31 02:28:54;;;;;;;;;;;;;;;9.93;77.43;99841.34;107645;1255;67102;-80
2023/03/31 02:31:21;;;;;;;;;;;;;;;9.88;77.64;99840.93;107370;1256;124817;-80
2023/03/31 02:33:48;;;;;;;;;;;;;;;9.87;77.86;99840.20;107760;1257;60078;-80
2023/03/31 02:36:15;;;;;;;;;;;;;;;9.88;77.94;99837.42;108046;1255;125674;-80
2023/03/31 02:38:44;;;;;;;;;;;;;;;9.90;77.98;99840.25;107904;1261;76569;-78
2023/03/31 02:41:11;;;;;;;;;;;;;;;9.91;78.11;99835.55;107874;1256;67093;-79
2023/03/31 02:43:38;;;;;;;;;;;;;;;9.92;78.06;99835.55;108765;1256;125041;-79
2023/03/31 02:46:05;;;;;;;;;;;;;;;9.94;78.04;99832.94;109023;1256;59870;-78
2023/03/31 02:48:33;;;;;;;;;;;;;;;9.96;78.12;99829.12;108829;1256;125455;-79
2023/03/31 02:51:07;;;;;;;;;;;;;;;9.97;78.23;99825.45;109043;1255;74215;-78
2023/03/31 02:53:52;;;;;;;;;;;;;;;9.97;78.24;99821.23;108901;1254;125126;-78
2023/03/31 02:56:35;;;;;;;;;;;;;;;9.89;78.04;99812.55;109086;1255;71403;-78
2023/03/31 02:59:16;;;;;;;;;;;;;;;9.82;78.12;99815.62;108212;1256;60212;-78
2023/03/31 03:01:43;;;;;;;;;;;;;;;9.79;78.28;99819.25;107863;1256;126280;-79
2023/03/31 03:04:24;;;;;;;;;;;;;;;9.78;78.36;99822.04;108923;1255;74257;-81
2023/03/31 03:06:56;;;;;;;;;;;;;;;9.77;78.48;99832.20;108873;1258;124951;-79
2023/03/31 03:09:44;;;;;;;;;;;;;;;9.78;78.61;99832.90;109084;1254;72612;-79
2023/03/31 03:12:14;;;;;;;;;;;;;;;9.81;78.71;99833.98;108766;1256;125459;-78
2023/03/31 03:14:47;;;;;;;;;;;;;;;9.82;78.70;99832.08;108977;1256;60363;-79
2023/03/31 03:17:16;;;;;;;;;;;;;;;9.84;78.69;99830.36;108763;1255;75228;-78
2023/03/31 03:19:43;;;;;;;;;;;;;;;9.85;78.73;99826.54;107714;1256;125123;-80
2023/03/31 03:22:10;;;;;;;;;;;;;;;9.86;78.79;99827.06;107799;1256;72435;-81
2023/03/31 03:24:38;;;;;;;;;;;;;;;9.88;78.68;99826.03;107777;1255;124920;-81
2023/03/31 03:27:05;;;;;;;;;;;;;;;9.87;78.73;99826.71;107961;1255;60434;-81
2023/03/31 03:29:34;;;;;;;;;;;;;;;9.85;78.71;99826.00;107694;1260;125571;-81
2023/03/31 03:32:01;;;;;;;;;;;;;;;9.84;78.72;99825.80;107647;1256;67556;-80
2023/03/31 03:34:28;;;;;;;;;;;;;;;9.84;78.76;99832.12;107749;1256;72708;-80
2023/03/31 03:36:55;;;;;;;;;;;;;;;9.85;78.75;99831.77;107695;1255;125006;-80
2023/03/31 03:39:22;;;;;;;;;;;;;;;9.84;78.76;99829.14;107975;1255;60766;-80
2023/03/31 03:41:49;;;;;;;;;;;;;;;9.84;78.80;99830.36;107729;1256;125297;-81
2023/03/31 03:44:16;;;;;;;;;;;;;;;9.85;78.83;99833.19;107718;1256;67293;-80
2023/03/31 03:46:43;;;;;;;;;;;;;;;9.86;78.88;99832.66;107765;1255;71416;-80
2023/03/31 03:49:10;;;;;;;;;;;;;;;9.88;78.86;99829.20;107717;1259;125341;-80
2023/03/31 03:51:37;;;;;;;;;;;;;;;9.90;78.90;99826.76;107908;1256;62063;-79
2023/03/31 03:54:04;;;;;;;;;;;;;;;9.89;78.76;99822.38;107532;1255;125199;-80
2023/03/31 03:56:32;;;;;;;;;;;;;;;9.89;78.74;99820.44;108003;1256;65654;-79
2023/03/31 03:59:00;;;;;;;;;;;;;;;9.86;78.77;99817.08;108117;1255;72777;-79
2023/03/31 04:01:27;;;;;;;;;;;;;;;9.84;78.71;99819.67;107607;1259;125497;-79
2023/03/31 04:03:54;;;;;;;;;;;;;;;9.79;78.60;99816.80;107706;1257;61206;-81
2023/03/31 04:06:22;;;;;;;;;;;;;;;9.73;78.61;99815.49;107364;1255;124862;-80
2023/03/31 04:08:49;;;;;;;;;;;;;;;9.68;78.74;99812.62;107827;1256;65840;-81
2023/03/31 04:11:16;;;;;;;;;;;;;;;9.64;78.74;99809.23;107784;1256;71395;-78
2023/03/31 04:13:43;;;;;;;;;;;;;;;9.64;78.90;99809.59;107448;1256;125095;-81
2023/03/31 04:16:10;;;;;;;;;;;;;;;9.63;78.98;99802.91;107577;1259;60319;-79
2023/03/31 04:18:41;;;;;;;;;;;;;;;9.66;79.07;99803.67;107467;1258;124813;-80
2023/03/31 04:21:11;;;;;;;;;;;;;;;9.66;79.02;99802.63;107947;1260;67623;-78
2023/03/31 04:23:41;;;;;;;;;;;;;;;9.62;78.89;99800.46;107866;1256;125546;-81
2023/03/31 04:26:08;;;;;;;;;;;;;;;9.57;78.86;99799.34;107642;1256;61317;-79
2023/03/31 04:28:41;;;;;;;;;;;;;;;9.51;78.77;99800.14;107820;1255;61766;-83
2023/03/31 04:31:09;;;;;;;;;;;;;;;9.49;78.85;99796.95;107339;1257;124793;-78
2023/03/31 04:33:38;;;;;;;;;;;;;;;9.50;78.99;99792.77;107499;1256;65626;-79
2023/03/31 04:36:16;;;;;;;;;;;;;;;9.54;79.12;99793.17;107716;1259;125102;-78
2023/03/31 04:38:49;;;;;;;;;;;;;;;9.59;79.10;99788.70;107402;1258;62112;-82
2023/03/31 04:41:16;;;;;;;;;;;;;;;9.64;79.14;99791.39;107570;1256;60775;-79
2023/03/31 04:43:43;;;;;;;;;;;;;;;9.68;79.04;99788.63;107563;1256;126612;-80
2023/03/31 04:46:10;;;;;;;;;;;;;;;9.71;79.07;99779.73;107461;1256;67094;-79
2023/03/31 04:48:37;;;;;;;;;;;;;;;9.72;78.99;99777.64;107666;1259;124915;-82
2023/03/31 04:51:07;;;;;;;;;;;;;;;9.73;78.94;99772.92;107497;1256;62074;-81
2023/03/31 04:53:34;;;;;;;;;;;;;;;9.78;78.92;99772.63;107634;1256;125182;-81
2023/03/31 04:56:02;;;;;;;;;;;;;;;9.82;78.95;99772.34;107712;1256;75572;-79
2023/03/31 04:58:29;;;;;;;;;;;;;;;9.86;78.78;99769.77;107722;1257;66299;-81
2023/03/31 05:00:56;;;;;;;;;;;;;;;9.92;78.85;99762.65;107605;1253;124762;-78
2023/03/31 05:03:25;;;;;;;;;;;;;;;10.02;78.99;99756.63;107920;1253;60119;-82
2023/03/31 05:05:52;;;;;;;;;;;;;;;10.12;78.80;99751.83;108000;1253;125506;-81
2023/03/31 05:08:20;;;;;;;;;;;;;;;10.23;78.73;99752.64;108078;1253;74396;-80
2023/03/31 05:10:47;;;;;;;;;;;;;;;10.39;78.83;99758.27;108304;1253;67118;-80
2023/03/31 05:13:13;;;;;;;;;;;;;;;10.49;78.57;99756.45;107811;1254;125007;-81
2023/03/31 05:15:43;;;;;;;;;;;;;;;10.55;78.40;99757.90;107736;1254;62067;-80
2023/03/31 05:18:10;;;;;;;;;;;;;;;10.59;78.25;99756.35;107777;1254;126259;-80
2023/03/31 05:20:37;;;;;;;;;;;;;;;10.62;78.02;99753.75;108150;1253;74189;-79
2023/03/31 05:23:06;;;;;;;;;;;;;;;10.64;77.95;99747.79;107918;1253;67550;-82
2023/03/31 05:25:33;;;;;;;;;;;;;;;10.67;77.91;99752.57;107778;1253;125836;-80
2023/03/31 05:28:00;;;;;;;;;;;;;;;10.74;77.97;99756.30;107640;1253;62146;-80
2023/03/31 05:30:28;;;;;;;;;;;;;;;10.79;77.85;99756.35;107438;1253;126220;-80
2023/03/31 05:32:55;;;;;;;;;;;;;;;10.82;77.66;99753.21;107683;1254;77863;-80
2023/03/31 05:35:22;;;;;;;;;;;;;;;10.87;77.63;99752.90;107990;1253;65719;-80
2023/03/31 05:37:49;;;;;;;;;;;;;;;10.90;77.45;99752.57;107977;1254;125428;-80
2023/03/31 05:40:17;;;;;;;;;;;;;;;10.94;77.35;99753.30;108056;1253;60476;-80
2023/03/31 05:42:44;;;;;;;;;;;;;;;10.97;77.33;99749.82;107779;1260;125509;-80
2023/03/31 05:45:11;;;;;;;;;;;;;;;11.02;77.30;99748.97;107651;1254;73115;-80
2023/03/31 05:47:38;;;;;;;;;;;;;;;11.06;77.09;99751.10;107987;1256;64477;-80
2023/03/31 05:50:07;;;;;;;;;;;;;;;11.08;77.02;99748.30;107714;1253;72809;-80
2023/03/31 05:52:35;;;;;;;;;;;;;;;11.08;76.87;99746.73;107784;1254;60106;-81
2023/03/31 05:55:03;;;;;;;;;;;;;;;11.09;76.81;99746.92;108063;1257;124341;-81
2023/03/31 05:57:30;;;;;;;;;;;;;;;11.10;76.79;99749.73;108013;1253;75456;-81
2023/03/31 05:59:57;;;;;;;;;;;;;;;11.11;76.65;99744.45;107895;1254;124922;-81
2023/03/31 06:02:24;;;;;;;;;;;;;;;11.13;76.70;99750.98;107781;1254;71546;-80
2023/03/31 06:04:51;;;;;;;;;;;;;;;11.12;76.66;99744.11;107574;1256;60773;-80
2023/03/31 06:07:18;;;;;;;;;;;;;;;11.15;76.73;99745.02;107597;1256;124469;-80
2023/03/31 06:09:45;;;;;;;;;;;;;;;11.20;76.57;99742.59;108108;1254;75189;-80
2023/03/31 06:12:12;;;;;;;;;;;;;;;11.25;76.63;99741.58;107882;1253;124760;-79
2023/03/31 06:14:39;;;;;;;;;;;;;;;11.32;76.68;99740.91;107806;1259;72756;-79
2023/03/31 06:17:06;;;;;;;;;;;;;;;11.42;76.53;99739.55;108091;1253;60744;-79
2023/03/31 06:19:33;;;;;;;;;;;;;;;11.53;76.48;99736.11;107983;1253;125581;-79
2023/03/31 06:22:01;;;;;;;;;;;;;;;11.67;76.43;99734.92;108112;1254;74894;-80
2023/03/31 06:24:28;;;;;;;;;;;;;;;11.75;76.17;99736.37;108117;1254;125190;-79
2023/03/31 06:26:55;;;;;;;;;;;;;;;11.83;76.05;99733.77;109140;1256;72665;-80
2023/03/31 06:29:22;;;;;;;;;;;;;;;11.89;75.99;99728.88;108019;1253;60358;-80
2023/03/31 06:31:50;;;;;;;;;;;;;;;11.97;75.89;99730.69;107974;1253;125444;-80
2023/03/31 06:34:18;;;;;;;;;;;;;;;12.03;75.80;99733.16;108098;1254;75514;-79
2023/03/31 06:36:45;;;;;;;;;;;;;;;12.06;75.57;99733.70;107814;1253;125506;-80
2023/03/31 06:39:12;;;;;;;;;;;;;;;12.05;75.42;99735.80;108021;1254;72711;-81
2023/03/31 06:41:39;;;;;;;;;;;;;;;12.06;75.33;99738.43;107754;1254;125574;-80
2023/03/31 06:44:08;;;;;;;;;;;;;;;12.05;75.27;99737.21;107862;1254;60121;-80
2023/03/31 06:46:35;;;;;;;;;;;;;;;12.05;75.20;99737.57;107710;1253;74491;-81
2023/03/31 06:49:02;;;;;;;;;;;;;;;12.04;75.10;99733.70;107563;1256;125213;-81
2023/03/31 06:51:29;;;;;;;;;;;;;;;12.03;74.97;99732.98;107963;1254;70807;-79
2023/03/31 06:53:56;;;;;;;;;;;;;;;12.04;75.10;99735.61;107832;1254;125889;-80
2023/03/31 06:56:23;;;;;;;;;;;;;;;12.04;74.93;99737.39;107852;1254;62086;-79
2023/03/31 06:58:50;;;;;;;;;;;;;;;12.09;75.02;99733.88;107966;1253;75229;-80
2023/03/31 07:01:17;;;;;;;;;;;;;;;12.11;74.80;99733.70;108013;1253;124341;-80
2023/03/31 07:03:44;;;;;;;;;;;;;;;12.09;74.78;99735.29;108030;1253;73321;-80
2023/03/31 07:06:11;;;;;;;;;;;;;;;12.03;74.58;99735.45;107768;1254;124533;-79
2023/03/31 07:08:38;;;;;;;;;;;;;;;11.95;74.50;99740.52;107931;1253;60554;-80
2023/03/31 07:11:05;;;;;;;;;;;;;;;11.89;74.70;99743.11;107949;1260;75355;-80
2023/03/31 07:13:32;;;;;;;;;;;;;;;11.91;74.78;99737.86;108112;1253;124241;-80
2023/03/31 07:15:59;;;;;;;;;;;;;;;11.96;74.93;99737.88;108227;1253;73131;-80
2023/03/31 07:18:30;;;;;;;;;;;;;;;11.96;74.74;99733.66;108049;1253;124680;-80
2023/03/31 07:20:58;;;;;;;;;;;;;;;11.94;74.77;99735.95;108123;1253;61840;-80
2023/03/31 07:23:26;;;;;;;;;;;;;;;11.92;74.60;99733.31;108107;1253;75504;-80
2023/03/31 07:25:54;;;;;;;;;;;;;;;11.91;74.74;99735.41;108073;1258;124712;-80
2023/03/31 07:28:21;;;;;;;;;;;;;;;11.94;74.84;99731.20;108114;1253;72391;-80
2023/03/31 07:30:48;;;;;;;;;;;;;;;12.03;74.94;99723.30;108134;1253;125011;-80
2023/03/31 07:33:15;;;;;;;;;;;;;;;12.18;74.95;99719.13;108490;1259;62594;-80
2023/03/31 07:35:42;;;;;;;;;;;;;;;12.35;75.03;99712.64;108455;1253;125225;-80
2023/03/31 07:38:09;;;;;;;;;;;;;;;12.58;74.96;99701.73;108524;1253;67336;-80
2023/03/31 07:40:36;;;;;;;;;;;;;;;12.87;74.94;99702.96;108816;1253;70951;-80
2023/03/31 07:43:03;;;;;;;;;;;;;;;13.15;74.75;99707.66;108869;1254;125423;-80
2023/03/31 07:45:30;;;;;;;;;;;;;;;13.41;74.34;99704.98;109137;1254;60065;-80
2023/03/31 07:47:57;;;;;;;;;;;;;;;13.61;74.22;99704.73;109048;1258;125068;-80
2023/03/31 07:50:24;;;;;;;;;;;;;;;13.77;73.70;99699.38;108900;1254;65368;-80
2023/03/31 07:52:51;;;;;;;;;;;;;;;13.90;73.29;99697.20;108862;1253;73073;-80
2023/03/31 07:55:18;;;;;;;;;;;;;;;13.92;72.84;99699.64;107900;1253;125182;-80
2023/03/31 07:57:46;;;;;;;;;;;;;;;13.97;72.65;99699.96;107845;1261;62026;-80
2023/03/31 08:00:14;;;;;;;;;;;;;;;14.09;72.63;99698.14;107695;1253;125291;-80
2023/03/31 08:02:44;;;;;;;;;;;;;;;14.22;72.41;99691.52;107994;1258;67008;-80
2023/03/31 08:05:16;;;;;;;;;;;;;;;14.32;71.96;99694.11;107779;1253;71142;-80
2023/03/31 08:07:44;;;;;;;;;;;;;;;14.45;71.96;99697.36;107891;1253;125203;-80
2023/03/31 08:10:12;;;;;;;;;;;;;;;14.62;71.63;99701.31;107808;1253;62104;-80
2023/03/31 08:12:40;;;;;;;;;;;;;;;14.73;71.31;99698.39;107754;1260;124796;-80
2023/03/31 08:15:08;;;;;;;;;;;;;;;14.84;71.02;99694.59;107821;1262;65441;-80
2023/03/31 08:17:35;;;;;;;;;;;;;;;15.08;70.84;99695.06;107936;1253;124790;-80
2023/03/31 08:20:05;;;;;;;;;;;;;;;15.22;70.42;99691.02;108069;1256;62478;-80
2023/03/31 08:22:32;;;;;;;;;;;;;;;15.32;70.26;99687.39;108136;1258;62039;-80
2023/03/31 08:24:59;;;;;;;;;;;;;;;15.48;70.12;99682.59;107884;1254;124589;-80
2023/03/31 08:27:26;;;;;;;;;;;;;;;15.61;69.67;99678.20;108104;1254;67068;-80
2023/03/31 08:29:53;;;;;;;;;;;;;;;15.62;69.26;99673.77;108163;1253;124379;-81
2023/03/31 08:32:23;;;;;;;;;;;;;;;15.71;69.10;99670.63;108049;1254;62230;-80
2023/03/31 08:34:50;;;;;;;;;;;;;;;15.84;68.89;99670.48;107978;1259;61708;-80
2023/03/31 08:37:17;;;;;;;;;;;;;;;15.98;68.52;99671.90;107978;1254;124651;-80
2023/03/31 08:39:44;;;;;;;;;;;;;;;16.17;68.38;99668.59;108267;1254;66412;-81
2023/03/31 08:42:14;;;;;;;;;;;;;;;16.34;68.03;99662.31;108085;1255;124940;-80
2023/03/31 08:44:43;;;;;;;;;;;;;;;16.27;67.33;99661.71;107795;1253;62128;-81
2023/03/31 08:47:12;;;;;;;;;;;;;;;16.15;67.12;99663.49;107672;1253;61360;-81
2023/03/31 08:49:50;;;;;;;;;;;;;;;16.13;66.91;99656.98;107902;1254;124270;-82
2023/03/31 08:52:38;;;;;;;;;;;;;;;16.09;66.50;99657.92;108217;1253;67384;-82
2023/03/31 08:55:25;;;;;;;;;;;;;;;16.14;66.47;99656.42;107580;1254;124716;-79
2023/03/31 08:57:58;;;;;;;;;;;;;;;16.18;66.32;99659.02;107584;1253;61989;-82
2023/03/31 09:00:26;;;;;;;;;;;;;;;16.20;66.21;99660.23;107607;1254;124739;-82
2023/03/31 09:03:01;;;;;;;;;;;;;;;16.30;66.45;99661.14;107532;1255;74208;-82
2023/03/31 09:05:49;;;;;;;;;;;;;;;16.49;66.02;99657.29;107567;1253;67064;-82
2023/03/31 09:08:25;;;;;;;;;;;;;;;16.60;65.49;99655.15;108087;1256;73541;-82
2023/03/31 09:10:57;;;;;;;;;;;;;;;16.68;65.15;99658.02;107668;1254;62095;-82
2023/03/31 09:13:44;;;;;;;;;;;;;;;16.73;64.77;99650.66;108447;1254;124250;-80
2023/03/31 09:16:11;;;;;;;;;;;;;;;16.77;64.46;99645.30;107767;1261;73238;-82
2023/03/31 09:18:42;;;;;;;;;;;;;;;16.80;64.27;99640.81;107584;1265;124287;-80
2023/03/31 09:21:11;;;;;;;;;;;;;;;16.76;63.81;99643.37;107241;1261;71386;-80
2023/03/31 09:23:40;;;;;;;;;;;;;;;16.67;63.49;99646.01;107477;1264;124673;-80
2023/03/31 09:26:07;;;;;;;;;;;;;;;16.56;63.46;99650.10;107527;1262;60206;-80
2023/03/31 09:28:36;;;;;;;;;;;;;;;16.46;63.34;99647.23;107548;1262;75561;-79
2023/03/31 09:31:21;;;;;;;;;;;;;;;16.43;63.41;99646.60;107220;1262;125424;-80
2023/03/31 09:33:48;;;;;;;;;;;;;;;16.44;63.28;99641.79;107397;1263;71959;-80
2023/03/31 09:36:16;;;;;;;;;;;;;;;16.40;63.10;99640.27;107278;1262;123498;-81
2023/03/31 09:38:43;;;;;;;;;;;;;;;16.38;63.26;99640.29;107357;1262;60808;-80
2023/03/31 09:41:10;;;;;;;;;;;;;;;16.45;63.10;99640.19;107116;1265;306209;-80
2023/03/31 09:43:38;;;;;;;;;;;;;;;16.40;62.74;99639.55;107184;1261;124842;-80
2023/03/31 09:46:09;;;;;;;;;;;;;;;16.52;63.03;99640.95;107158;1263;72747;-80
2023/03/31 09:48:36;;;;;;;;;;;;;;;16.69;62.79;99637.45;107061;1262;124467;-80
2023/03/31 09:51:04;;;;;;;;;;;;;;;16.73;62.36;99637.23;108495;1261;61164;-80
2023/03/31 09:53:38;;;;;;;;;;;;;;;16.53;61.87;99635.27;108760;1254;73865;-80
2023/03/31 09:56:10;;;;;;;;;;;;;;;16.16;61.60;99638.70;107756;1260;65965;-80
2023/03/31 09:58:41;;;;;;;;;;;;;;;15.89;61.91;99637.52;107751;1253;72453;-80
2023/03/31 10:01:09;;;;;;;;;;;;;;;15.71;61.85;99637.75;107164;1255;125427;-80
2023/03/31 10:03:44;;;;;;;;;;;;;;;15.59;62.09;99642.14;107456;1256;60995;-80
2023/03/31 10:06:13;;;;;;;;;;;;;;;15.61;62.32;99637.69;107788;1256;124573;-81
2023/03/31 10:08:40;;;;;;;;;;;;;;;15.73;62.54;99640.55;107807;1257;67037;-80
2023/03/31 10:11:08;;;;;;;;;;;;;;;15.87;62.58;99636.14;107575;1257;71382;-80
2023/03/31 10:13:48;;;;;;;;;;;;;;;15.97;62.21;99635.46;107491;1256;125007;-80
2023/03/31 10:16:22;;;;;;;;;;;;;;;15.99;62.01;99632.95;107253;1256;61203;-80
2023/03/31 10:18:49;;;;;;;;;;;;;;;15.91;61.94;99634.48;107181;1256;124428;-79
2023/03/31 10:21:21;;;;;;;;;;;;;;;15.76;61.77;99631.33;107789;1259;65953;-80
2023/03/31 10:23:48;;;;;;;;;;;;;;;15.50;61.61;99633.77;108451;1256;124937;-80
2023/03/31 10:26:29;;;;;;;;;;;;;;;15.21;61.68;99639.78;107055;1257;62043;-80
2023/03/31 10:28:57;;;;;;;;;;;;;;;15.02;61.99;99640.36;107229;1259;60797;-80
2023/03/31 10:31:24;;;;;;;;;;;;;;;14.90;62.28;99640.13;107332;1259;124325;-79
2023/03/31 10:33:51;;;;;;;;;;;;;;;14.77;62.55;99640.44;107337;1259;67104;-79
2023/03/31 10:36:22;;;;;;;;;;;;;;;14.64;62.76;99639.68;107150;1257;124592;-79
2023/03/31 10:38:49;;;;;;;;;;;;;;;14.50;62.91;99638.73;107299;1257;63165;-79
2023/03/31 10:41:23;;;;;;;;;;;;;;;14.34;62.85;99643.61;107398;1257;60866;-79
2023/03/31 10:43:52;;;;;;;;;;;;;;;14.23;63.24;99645.28;107407;1257;125050;-80
2023/03/31 10:46:19;;;;;;;;;;;;;;;14.17;63.58;99646.91;107620;1258;67034;-80
2023/03/31 10:48:47;;;;;;;;;;;;;;;14.14;63.71;99644.47;107159;1257;124507;-80
2023/03/31 10:51:15;;;;;;;;;;;;;;;14.07;63.62;99646.11;107142;1257;60666;-79
2023/03/31 10:53:46;;;;;;;;;;;;;;;14.06;63.88;99644.52;106990;1255;124568;-80
2023/03/31 10:56:13;;;;;;;;;;;;;;;14.11;63.94;99643.79;107535;1257;75489;-80
2023/03/31 10:58:51;;;;;;;;;;;;;;;14.23;64.16;99639.81;107739;1261;66387;-80
2023/03/31 11:01:26;;;;;;;;;;;;;;;14.41;64.14;99638.44;107375;1260;124667;-80
2023/03/31 11:03:59;;;;;;;;;;;;;;;14.62;64.11;99637.05;107505;1255;60105;-80
2023/03/31 11:06:38;;;;;;;;;;;;;;;14.91;64.24;99634.11;108653;1254;124812;-80
2023/03/31 11:09:24;;;;;;;;;;;;;;;15.25;63.89;99628.95;107488;1254;74188;-80
2023/03/31 11:12:00;;;;;;;;;;;;;;;15.55;63.39;99626.27;107498;1254;124925;-80
2023/03/31 11:14:44;;;;;;;;;;;;;;;15.82;62.92;99624.70;107174;1254;72467;-81
2023/03/31 11:17:21;;;;;;;;;;;;;;;16.08;62.47;99622.90;108850;1254;60632;-80
2023/03/31 11:20:01;;;;;;;;;;;;;;;16.23;61.99;99619.13;107778;1254;124664;-81
2023/03/31 11:22:45;;;;;;;;;;;;;;;16.25;61.70;99619.61;107745;1260;74818;-79
2023/03/31 11:25:30;;;;;;;;;;;;;;;16.25;61.75;99621.21;107825;1254;124443;-82
2023/03/31 11:28:23;;;;;;;;;;;;;;;16.17;62.06;99625.40;107375;1260;71455;-82
2023/03/31 11:30:56;;;;;;;;;;;;;;;16.10;62.46;99624.65;107422;1258;124345;-82
2023/03/31 11:33:29;;;;;;;;;;;;;;;16.10;62.77;99621.45;107696;1255;62038;-82
2023/03/31 11:36:17;;;;;;;;;;;;;;;16.20;62.90;99616.52;107701;1254;124874;-82
2023/03/31 11:38:44;;;;;;;;;;;;;;;16.34;62.94;99613.45;107440;1259;65513;-79
2023/03/31 11:41:16;;;;;;;;;;;;;;;16.41;62.86;99607.33;107696;1254;72491;-79
2023/03/31 11:43:43;;;;;;;;;;;;;;;16.43;62.56;99601.61;108049;1256;125292;-79
2023/03/31 11:46:18;;;;;;;;;;;;;;;16.42;62.51;99605.70;108034;1254;60291;-79
2023/03/31 11:48:58;;;;;;;;;;;;;;;16.35;62.32;99607.06;107448;1254;125614;-80
2023/03/31 11:51:25;;;;;;;;;;;;;;;16.19;62.35;99608.05;107784;1254;65502;-80
2023/03/31 11:53:52;;;;;;;;;;;;;;;16.00;62.32;99611.17;107887;1252;125347;-80
2023/03/31 11:56:20;;;;;;;;;;;;;;;15.88;62.44;99599.85;108041;1254;60341;-80
2023/03/31 11:58:51;;;;;;;;;;;;;;;15.88;62.72;99594.36;107614;1256;61719;-80
2023/03/31 12:01:37;;;;;;;;;;;;;;;15.94;62.80;99594.27;107290;1258;124923;-80
2023/03/31 12:04:16;;;;;;;;;;;;;;;15.90;62.63;99591.16;107720;1263;66972;-80
2023/03/31 12:06:45;;;;;;;;;;;;;;;15.79;62.47;99586.19;107317;1257;124329;-80
2023/03/31 12:09:22;;;;;;;;;;;;;;;15.64;62.64;99581.77;107634;1255;62721;-80
2023/03/31 12:11:51;;;;;;;;;;;;;;;15.55;62.57;99578.19;107614;1257;124705;-80
2023/03/31 12:14:24;;;;;;;;;;;;;;;15.52;62.75;99572.73;108955;1259;75253;-81
2023/03/31 12:16:54;;;;;;;;;;;;;;;15.59;62.87;99570.71;108841;1260;65770;-80
2023/03/31 12:19:21;;;;;;;;;;;;;;;15.71;63.05;99568.06;108790;1257;124251;-80
2023/03/31 12:21:50;;;;;;;;;;;;;;;15.86;63.12;99566.97;109011;1257;60083;-81
2023/03/31 12:24:17;;;;;;;;;;;;;;;15.95;62.74;99563.83;108774;1260;124588;-80
2023/03/31 12:27:03;;;;;;;;;;;;;;;15.98;62.47;99562.90;107929;1257;73202;-80
2023/03/31 12:29:32;;;;;;;;;;;;;;;15.94;62.44;99558.36;107736;1257;64770;-80
2023/03/31 12:32:00;;;;;;;;;;;;;;;15.86;62.30;99558.31;107565;1258;71396;-80
2023/03/31 12:34:27;;;;;;;;;;;;;;;15.80;62.38;99560.88;107992;1257;61191;-80
2023/03/31 12:36:54;;;;;;;;;;;;;;;15.82;62.67;99550.05;107998;1261;124860;-80
2023/03/31 12:39:37;;;;;;;;;;;;;;;15.87;62.74;99548.21;107759;1259;74283;-80
2023/03/31 12:42:10;;;;;;;;;;;;;;;15.84;62.41;99549.69;107464;1257;125392;-80
2023/03/31 12:44:43;;;;;;;;;;;;;;;15.71;62.39;99551.98;109006;1256;72667;-80
2023/03/31 12:47:29;;;;;;;;;;;;;;;15.61;62.45;99551.23;109052;1257;60083;-80
2023/03/31 12:50:08;;;;;;;;;;;;;;;15.53;62.46;99546.56;108813;1258;124633;-80